sensor_id;sensor_type;location;lat;lon;timestamp;pressure;altitude;pressure_sealevel;temperature;humidity
76551;BME280;65393;53.160;18.170;2023-02-20T00:00:34;101548.98;;;0.94;68.90
76551;BME280;65393;53.160;18.170;2023-02-20T00:03:22;101546.85;;;0.92;68.72
76551;BME280;65393;53.160;18.170;2023-02-20T00:05:48;101545.98;;;0.90;69.03
76551;BME280;65393;53.160;18.170;2023-02-20T00:08:15;101547.50;;;0.88;68.84
76551;BME280;65393;53.160;18.170;2023-02-20T00:10:42;101542.40;;;0.86;69.05
76551;BME280;65393;53.160;18.170;2023-02-20T00:13:09;101545.14;;;0.83;69.37
76551;BME280;65393;53.160;18.170;2023-02-20T00:15:35;101539.54;;;0.81;69.01
76551;BME280;65393;53.160;18.170;2023-02-20T00:18:02;101541.27;;;0.80;69.35
76551;BME280;65393;53.160;18.170;2023-02-20T00:20:29;101535.83;;;0.79;69.24
76551;BME280;65393;53.160;18.170;2023-02-20T00:22:57;101530.92;;;0.78;69.11
76551;BME280;65393;53.160;18.170;2023-02-20T00:25:24;101530.04;;;0.77;69.11
76551;BME280;65393;53.160;18.170;2023-02-20T00:27:51;101526.52;;;0.76;69.07
76551;BME280;65393;53.160;18.170;2023-02-20T00:30:20;101525.66;;;0.77;69.22
76551;BME280;65393;53.160;18.170;2023-02-20T00:32:49;101521.64;;;0.76;69.55
76551;BME280;65393;53.160;18.170;2023-02-20T00:35:17;101518.83;;;0.75;69.54
76551;BME280;65393;53.160;18.170;2023-02-20T00:37:46;101517.77;;;0.74;69.85
76551;BME280;65393;53.160;18.170;2023-02-20T00:40:14;101509.03;;;0.74;69.56
76551;BME280;65393;53.160;18.170;2023-02-20T00:42:41;101507.45;;;0.74;69.94
76551;BME280;65393;53.160;18.170;2023-02-20T00:45:09;101508.86;;;0.75;69.69
76551;BME280;65393;53.160;18.170;2023-02-20T00:47:37;101518.46;;;0.74;69.90
76551;BME280;65393;53.160;18.170;2023-02-20T00:50:05;101513.42;;;0.76;69.66
76551;BME280;65393;53.160;18.170;2023-02-20T00:52:33;101510.27;;;0.76;69.50
76551;BME280;65393;53.160;18.170;2023-02-20T00:54:59;101505.38;;;0.75;70.00
76551;BME280;65393;53.160;18.170;2023-02-20T00:57:26;101498.42;;;0.77;69.60
76551;BME280;65393;53.160;18.170;2023-02-20T00:59:54;101499.50;;;0.79;69.63
76551;BME280;65393;53.160;18.170;2023-02-20T01:02:21;101496.52;;;0.79;70.14
76551;BME280;65393;53.160;18.170;2023-02-20T01:04:48;101501.61;;;0.80;69.62
76551;BME280;65393;53.160;18.170;2023-02-20T01:07:15;101497.77;;;0.80;69.42
76551;BME280;65393;53.160;18.170;2023-02-20T01:09:42;101496.73;;;0.81;69.88
76551;BME280;65393;53.160;18.170;2023-02-20T01:12:09;101492.39;;;0.84;69.63
76551;BME280;65393;53.160;18.170;2023-02-20T01:14:35;101493.45;;;0.85;69.52
76551;BME280;65393;53.160;18.170;2023-02-20T01:17:02;101490.67;;;0.86;69.92
76551;BME280;65393;53.160;18.170;2023-02-20T01:19:29;101487.71;;;0.87;70.08
76551;BME280;65393;53.160;18.170;2023-02-20T01:21:55;101479.17;;;0.88;70.09
76551;BME280;65393;53.160;18.170;2023-02-20T01:24:22;101480.06;;;0.89;69.73
76551;BME280;65393;53.160;18.170;2023-02-20T01:26:49;101481.47;;;0.90;69.82
76551;BME280;65393;53.160;18.170;2023-02-20T01:29:16;101484.80;;;0.90;69.60
76551;BME280;65393;53.160;18.170;2023-02-20T01:31:50;101489.34;;;0.90;69.63
76551;BME280;65393;53.160;18.170;2023-02-20T01:34:18;101491.79;;;0.90;69.75
76551;BME280;65393;53.160;18.170;2023-02-20T01:36:50;101500.52;;;0.90;69.59
76551;BME280;65393;53.160;18.170;2023-02-20T01:39:19;101507.86;;;0.89;69.53
76551;BME280;65393;53.160;18.170;2023-02-20T01:41:48;101506.42;;;0.87;69.75
76551;BME280;65393;53.160;18.170;2023-02-20T01:44:22;101500.98;;;0.86;69.88
76551;BME280;65393;53.160;18.170;2023-02-20T01:46:51;101498.91;;;0.87;69.96
76551;BME280;65393;53.160;18.170;2023-02-20T01:49:28;101500.46;;;0.86;70.03
76551;BME280;65393;53.160;18.170;2023-02-20T01:52:06;101500.80;;;0.85;69.68
76551;BME280;65393;53.160;18.170;2023-02-20T01:54:36;101491.17;;;0.84;69.59
76551;BME280;65393;53.160;18.170;2023-02-20T01:57:08;101477.70;;;0.82;69.87
76551;BME280;65393;53.160;18.170;2023-02-20T01:59:39;101471.39;;;0.81;69.89
76551;BME280;65393;53.160;18.170;2023-02-20T02:02:07;101466.66;;;0.80;70.12
76551;BME280;65393;53.160;18.170;2023-02-20T02:04:35;101465.05;;;0.78;69.88
76551;BME280;65393;53.160;18.170;2023-02-20T02:07:03;101459.27;;;0.76;70.22
76551;BME280;65393;53.160;18.170;2023-02-20T02:09:42;101454.01;;;0.75;70.36
76551;BME280;65393;53.160;18.170;2023-02-20T02:12:11;101454.20;;;0.77;70.05
76551;BME280;65393;53.160;18.170;2023-02-20T02:14:38;101451.58;;;0.77;70.23
76551;BME280;65393;53.160;18.170;2023-02-20T02:28:16;101433.77;;;0.78;70.78
76551;BME280;65393;53.160;18.170;2023-02-20T02:39:14;101428.93;;;0.81;71.44
76551;BME280;65393;53.160;18.170;2023-02-20T02:47:20;101423.16;;;0.82;71.38
76551;BME280;65393;53.160;18.170;2023-02-20T02:52:25;101413.97;;;0.87;71.44
76551;BME280;65393;53.160;18.170;2023-02-20T02:55:09;101411.36;;;0.88;71.55
76551;BME280;65393;53.160;18.170;2023-02-20T02:57:36;101406.34;;;0.91;71.53
76551;BME280;65393;53.160;18.170;2023-02-20T03:00:20;101402.85;;;0.91;71.60
76551;BME280;65393;53.160;18.170;2023-02-20T03:03:16;101403.02;;;0.93;71.58
76551;BME280;65393;53.160;18.170;2023-02-20T03:11:25;101393.89;;;1.04;71.99
76551;BME280;65393;53.160;18.170;2023-02-20T03:20:02;101388.77;;;1.14;71.98
76551;BME280;65393;53.160;18.170;2023-02-20T03:23:03;101388.63;;;1.17;72.24
76551;BME280;65393;53.160;18.170;2023-02-20T03:25:53;101385.52;;;1.20;72.56
76551;BME280;65393;53.160;18.170;2023-02-20T03:28:27;101377.31;;;1.23;72.59
76551;BME280;65393;53.160;18.170;2023-02-20T03:31:11;101372.11;;;1.26;72.94
76551;BME280;65393;53.160;18.170;2023-02-20T03:33:54;101374.96;;;1.29;72.51
76551;BME280;65393;53.160;18.170;2023-02-20T03:37:09;101375.33;;;1.32;72.48
76551;BME280;65393;53.160;18.170;2023-02-20T03:40:00;101365.57;;;1.36;72.57
76551;BME280;65393;53.160;18.170;2023-02-20T03:42:48;101365.77;;;1.38;73.13
76551;BME280;65393;53.160;18.170;2023-02-20T03:45:38;101355.84;;;1.42;73.03
76551;BME280;65393;53.160;18.170;2023-02-20T03:48:17;101349.20;;;1.44;72.86
76551;BME280;65393;53.160;18.170;2023-02-20T03:50:46;101342.07;;;1.48;73.05
76551;BME280;65393;53.160;18.170;2023-02-20T03:53:38;101340.71;;;1.53;73.15
76551;BME280;65393;53.160;18.170;2023-02-20T03:56:15;101336.38;;;1.58;72.94
76551;BME280;65393;53.160;18.170;2023-02-20T03:58:50;101337.83;;;1.63;72.86
76551;BME280;65393;53.160;18.170;2023-02-20T04:01:22;101327.70;;;1.67;72.56
76551;BME280;65393;53.160;18.170;2023-02-20T04:03:53;101327.55;;;1.69;72.56
76551;BME280;65393;53.160;18.170;2023-02-20T04:06:24;101327.59;;;1.72;72.54
76551;BME280;65393;53.160;18.170;2023-02-20T04:09:06;101324.25;;;1.72;72.95
76551;BME280;65393;53.160;18.170;2023-02-20T04:11:57;101324.77;;;1.69;72.54
76551;BME280;65393;53.160;18.170;2023-02-20T04:14:25;101319.64;;;1.65;73.06
76551;BME280;65393;53.160;18.170;2023-02-20T04:16:59;101317.88;;;1.62;72.91
76551;BME280;65393;53.160;18.170;2023-02-20T04:19:27;101314.88;;;1.59;73.21
76551;BME280;65393;53.160;18.170;2023-02-20T04:21:56;101314.67;;;1.57;72.98
76551;BME280;65393;53.160;18.170;2023-02-20T04:24:52;101321.66;;;1.56;73.07
76551;BME280;65393;53.160;18.170;2023-02-20T04:27:21;101314.66;;;1.56;73.02
76551;BME280;65393;53.160;18.170;2023-02-20T04:29:52;101310.65;;;1.57;73.03
76551;BME280;65393;53.160;18.170;2023-02-20T04:32:19;101313.98;;;1.57;73.08
76551;BME280;65393;53.160;18.170;2023-02-20T04:34:46;101311.88;;;1.57;73.33
76551;BME280;65393;53.160;18.170;2023-02-20T04:37:17;101308.91;;;1.58;73.14
76551;BME280;65393;53.160;18.170;2023-02-20T04:39:45;101302.42;;;1.57;73.55
76551;BME280;65393;53.160;18.170;2023-02-20T04:42:12;101299.96;;;1.56;73.36
76551;BME280;65393;53.160;18.170;2023-02-20T04:44:39;101295.09;;;1.58;74.04
76551;BME280;65393;53.160;18.170;2023-02-20T04:47:11;101290.90;;;1.59;73.84
76551;BME280;65393;53.160;18.170;2023-02-20T04:49:38;101287.77;;;1.61;73.74
76551;BME280;65393;53.160;18.170;2023-02-20T04:52:06;101280.96;;;1.62;73.54
76551;BME280;65393;53.160;18.170;2023-02-20T04:54:33;101276.76;;;1.61;74.29
76551;BME280;65393;53.160;18.170;2023-02-20T04:57:00;101272.23;;;1.63;73.95
76551;BME280;65393;53.160;18.170;2023-02-20T04:59:27;101274.65;;;1.64;73.88
76551;BME280;65393;53.160;18.170;2023-02-20T05:01:53;101272.73;;;1.65;73.94
76551;BME280;65393;53.160;18.170;2023-02-20T05:04:22;101264.88;;;1.65;74.02
76551;BME280;65393;53.160;18.170;2023-02-20T05:06:51;101266.95;;;1.65;74.09
76551;BME280;65393;53.160;18.170;2023-02-20T05:09:19;101263.83;;;1.66;74.20
76551;BME280;65393;53.160;18.170;2023-02-20T05:11:46;101257.36;;;1.67;74.01
76551;BME280;65393;53.160;18.170;2023-02-20T05:14:13;101246.00;;;1.68;74.54
76551;BME280;65393;53.160;18.170;2023-02-20T05:16:41;101233.77;;;1.70;74.60
76551;BME280;65393;53.160;18.170;2023-02-20T05:19:11;101229.42;;;1.72;74.58
76551;BME280;65393;53.160;18.170;2023-02-20T05:21:42;101228.71;;;1.75;74.64
76551;BME280;65393;53.160;18.170;2023-02-20T05:24:29;101223.84;;;1.78;74.99
76551;BME280;65393;53.160;18.170;2023-02-20T05:26:58;101223.17;;;1.82;74.82
76551;BME280;65393;53.160;18.170;2023-02-20T05:29:25;101214.42;;;1.85;74.56
76551;BME280;65393;53.160;18.170;2023-02-20T05:31:51;101207.10;;;1.88;74.82
76551;BME280;65393;53.160;18.170;2023-02-20T05:34:18;101196.44;;;1.92;74.76
76551;BME280;65393;53.160;18.170;2023-02-20T05:36:48;101186.81;;;1.95;74.83
76551;BME280;65393;53.160;18.170;2023-02-20T05:39:14;101189.81;;;1.98;74.82
76551;BME280;65393;53.160;18.170;2023-02-20T05:41:41;101188.96;;;2.01;74.66
76551;BME280;65393;53.160;18.170;2023-02-20T05:44:08;101177.40;;;2.04;74.81
76551;BME280;65393;53.160;18.170;2023-02-20T05:46:40;101164.45;;;2.06;74.84
76551;BME280;65393;53.160;18.170;2023-02-20T05:49:08;101164.11;;;2.08;74.90
76551;BME280;65393;53.160;18.170;2023-02-20T05:51:35;101172.54;;;2.11;74.75
76551;BME280;65393;53.160;18.170;2023-02-20T05:54:02;101166.94;;;2.12;74.90
76551;BME280;65393;53.160;18.170;2023-02-20T05:56:29;101156.60;;;2.15;75.02
76551;BME280;65393;53.160;18.170;2023-02-20T05:58:58;101149.77;;;2.15;74.93
76551;BME280;65393;53.160;18.170;2023-02-20T06:01:28;101139.63;;;2.16;75.07
76551;BME280;65393;53.160;18.170;2023-02-20T06:03:55;101139.80;;;2.17;75.33
76551;BME280;65393;53.160;18.170;2023-02-20T06:06:22;101135.25;;;2.17;75.71
76551;BME280;65393;53.160;18.170;2023-02-20T06:08:50;101139.45;;;2.17;75.82
76551;BME280;65393;53.160;18.170;2023-02-20T06:11:16;101135.42;;;2.17;76.07
76551;BME280;65393;53.160;18.170;2023-02-20T06:13:44;101136.99;;;2.15;75.93
76551;BME280;65393;53.160;18.170;2023-02-20T06:16:11;101135.42;;;2.13;76.64
76551;BME280;65393;53.160;18.170;2023-02-20T06:18:39;101129.30;;;2.11;76.69
76551;BME280;65393;53.160;18.170;2023-02-20T06:21:10;101122.98;;;2.08;77.27
76551;BME280;65393;53.160;18.170;2023-02-20T06:23:38;101114.20;;;2.07;77.45
76551;BME280;65393;53.160;18.170;2023-02-20T06:26:06;101110.53;;;2.06;77.15
76551;BME280;65393;53.160;18.170;2023-02-20T06:28:33;101113.67;;;2.05;77.53
76551;BME280;65393;53.160;18.170;2023-02-20T06:31:00;101109.14;;;2.03;78.34
76551;BME280;65393;53.160;18.170;2023-02-20T06:33:26;101107.55;;;2.02;78.87
76551;BME280;65393;53.160;18.170;2023-02-20T06:35:53;101102.48;;;2.01;79.08
76551;BME280;65393;53.160;18.170;2023-02-20T06:38:20;101093.54;;;1.99;79.32
76551;BME280;65393;53.160;18.170;2023-02-20T06:40:47;101098.08;;;1.96;79.01
76551;BME280;65393;53.160;18.170;2023-02-20T06:43:13;101089.14;;;1.95;79.70
76551;BME280;65393;53.160;18.170;2023-02-20T06:45:40;101083.38;;;1.91;80.14
76551;BME280;65393;53.160;18.170;2023-02-20T06:48:07;101079.34;;;1.90;79.96
76551;BME280;65393;53.160;18.170;2023-02-20T06:50:34;101068.13;;;1.88;80.34
76551;BME280;65393;53.160;18.170;2023-02-20T06:53:00;101067.58;;;1.85;80.86
76551;BME280;65393;53.160;18.170;2023-02-20T06:55:27;101059.01;;;1.86;81.18
76551;BME280;65393;53.160;18.170;2023-02-20T06:57:54;101033.80;;;1.86;80.25
76551;BME280;65393;53.160;18.170;2023-02-20T07:00:21;101018.58;;;1.86;82.03
76551;BME280;65393;53.160;18.170;2023-02-20T07:02:47;101003.19;;;1.87;82.79
76551;BME280;65393;53.160;18.170;2023-02-20T07:05:14;100997.05;;;1.86;83.06
76551;BME280;65393;53.160;18.170;2023-02-20T07:07:41;100991.98;;;1.88;82.22
76551;BME280;65393;53.160;18.170;2023-02-20T07:10:08;100984.11;;;1.90;82.24
76551;BME280;65393;53.160;18.170;2023-02-20T07:12:34;100989.38;;;1.91;82.84
76551;BME280;65393;53.160;18.170;2023-02-20T07:15:05;100992.88;;;1.91;82.69
76551;BME280;65393;53.160;18.170;2023-02-20T07:17:33;100988.31;;;1.94;82.12
76551;BME280;65393;53.160;18.170;2023-02-20T07:20:00;100983.95;;;1.93;82.53
76551;BME280;65393;53.160;18.170;2023-02-20T07:22:27;100976.75;;;1.95;82.41
76551;BME280;65393;53.160;18.170;2023-02-20T07:24:54;100970.29;;;1.97;82.73
76551;BME280;65393;53.160;18.170;2023-02-20T07:27:21;100967.66;;;1.97;83.48
76551;BME280;65393;53.160;18.170;2023-02-20T07:29:49;100959.27;;;1.98;84.11
76551;BME280;65393;53.160;18.170;2023-02-20T07:32:16;100963.13;;;2.02;83.47
76551;BME280;65393;53.160;18.170;2023-02-20T07:34:46;100966.46;;;2.03;83.69
76551;BME280;65393;53.160;18.170;2023-02-20T07:37:14;100961.20;;;2.04;83.92
76551;BME280;65393;53.160;18.170;2023-02-20T07:39:41;100956.81;;;2.06;83.67
76551;BME280;65393;53.160;18.170;2023-02-20T07:42:07;100950.34;;;2.07;83.34
76551;BME280;65393;53.160;18.170;2023-02-20T07:44:51;100942.98;;;2.09;84.05
76551;BME280;65393;53.160;18.170;2023-02-20T07:47:18;100934.07;;;2.10;84.42
76551;BME280;65393;53.160;18.170;2023-02-20T07:49:45;100934.78;;;2.12;83.69
76551;BME280;65393;53.160;18.170;2023-02-20T07:52:12;100933.01;;;2.14;83.55
76551;BME280;65393;53.160;18.170;2023-02-20T07:54:38;100930.38;;;2.16;84.09
76551;BME280;65393;53.160;18.170;2023-02-20T07:57:05;100930.38;;;2.16;84.65
76551;BME280;65393;53.160;18.170;2023-02-20T07:59:32;100924.08;;;2.19;84.39
76551;BME280;65393;53.160;18.170;2023-02-20T08:01:59;100918.13;;;2.20;84.43
76551;BME280;65393;53.160;18.170;2023-02-20T08:04:25;100911.83;;;2.23;84.61
76551;BME280;65393;53.160;18.170;2023-02-20T08:06:53;100903.58;;;2.25;84.28
76551;BME280;65393;53.160;18.170;2023-02-20T08:09:19;100894.82;;;2.26;84.77
76551;BME280;65393;53.160;18.170;2023-02-20T08:11:46;100880.29;;;2.28;84.43
76551;BME280;65393;53.160;18.170;2023-02-20T08:14:13;100858.57;;;2.29;84.86
76551;BME280;65393;53.160;18.170;2023-02-20T08:16:41;100854.89;;;2.30;85.22
76551;BME280;65393;53.160;18.170;2023-02-20T08:19:07;100852.96;;;2.31;84.94
76551;BME280;65393;53.160;18.170;2023-02-20T08:21:34;100853.66;;;2.33;85.04
76551;BME280;65393;53.160;18.170;2023-02-20T08:24:01;100853.33;;;2.33;85.78
76551;BME280;65393;53.160;18.170;2023-02-20T08:26:27;100848.04;;;2.35;85.09
76551;BME280;65393;53.160;18.170;2023-02-20T08:28:54;100844.70;;;2.35;85.10
76551;BME280;65393;53.160;18.170;2023-02-20T08:31:21;100834.90;;;2.37;85.60
76551;BME280;65393;53.160;18.170;2023-02-20T08:33:47;100817.91;;;2.39;86.11
76551;BME280;65393;53.160;18.170;2023-02-20T08:36:14;100813.36;;;2.42;86.27
76551;BME280;65393;53.160;18.170;2023-02-20T08:38:44;100801.23;;;2.44;86.07
76551;BME280;65393;53.160;18.170;2023-02-20T08:41:11;100791.08;;;2.47;86.33
76551;BME280;65393;53.160;18.170;2023-02-20T08:43:39;100779.86;;;2.52;86.84
76551;BME280;65393;53.160;18.170;2023-02-20T08:46:06;100766.86;;;2.55;86.31
76551;BME280;65393;53.160;18.170;2023-02-20T08:48:34;100757.39;;;2.59;86.72
76551;BME280;65393;53.160;18.170;2023-02-20T08:51:01;100747.73;;;2.63;86.66
76551;BME280;65393;53.160;18.170;2023-02-20T08:53:28;100742.45;;;2.67;86.60
76551;BME280;65393;53.160;18.170;2023-02-20T08:55:55;100739.46;;;2.70;86.68
76551;BME280;65393;53.160;18.170;2023-02-20T08:58:23;100733.48;;;2.73;86.77
76551;BME280;65393;53.160;18.170;2023-02-20T09:00:51;100733.98;;;2.75;86.86
76551;BME280;65393;53.160;18.170;2023-02-20T09:03:18;100733.45;;;2.77;85.96
76551;BME280;65393;53.160;18.170;2023-02-20T09:05:45;100712.76;;;2.81;86.09
76551;BME280;65393;53.160;18.170;2023-02-20T09:08:12;100703.63;;;2.83;87.34
76551;BME280;65393;53.160;18.170;2023-02-20T09:10:39;100706.23;;;2.85;87.27
76551;BME280;65393;53.160;18.170;2023-02-20T09:13:06;100696.21;;;2.88;87.08
76551;BME280;65393;53.160;18.170;2023-02-20T09:15:33;100684.81;;;2.91;87.38
76551;BME280;65393;53.160;18.170;2023-02-20T09:18:06;100673.42;;;2.92;87.79
76551;BME280;65393;53.160;18.170;2023-02-20T09:20:34;100617.10;;;2.95;86.91
76551;BME280;65393;53.160;18.170;2023-02-20T09:23:03;100602.89;;;2.95;87.51
76551;BME280;65393;53.160;18.170;2023-02-20T09:25:30;100618.30;;;2.99;87.85
76551;BME280;65393;53.160;18.170;2023-02-20T09:27:56;100608.46;;;3.03;87.52
76551;BME280;65393;53.160;18.170;2023-02-20T09:30:23;100605.79;;;3.06;87.80
76551;BME280;65393;53.160;18.170;2023-02-20T09:32:50;100593.65;;;3.11;87.21
76551;BME280;65393;53.160;18.170;2023-02-20T09:35:26;100578.73;;;3.12;87.69
76551;BME280;65393;53.160;18.170;2023-02-20T09:37:53;100574.66;;;3.16;87.76
76551;BME280;65393;53.160;18.170;2023-02-20T09:40:26;100552.67;;;3.22;87.27
76551;BME280;65393;53.160;18.170;2023-02-20T09:45:46;100536.95;;;3.31;86.84
76551;BME280;65393;53.160;18.170;2023-02-20T09:48:32;100523.95;;;3.36;87.45
76551;BME280;65393;53.160;18.170;2023-02-20T09:51:10;100506.86;;;3.39;86.99
76551;BME280;65393;53.160;18.170;2023-02-20T09:56:38;100491.67;;;3.47;87.83
76551;BME280;65393;53.160;18.170;2023-02-20T09:59:18;100490.05;;;3.52;87.49
76551;BME280;65393;53.160;18.170;2023-02-20T10:01:56;100478.95;;;3.55;86.97
76551;BME280;65393;53.160;18.170;2023-02-20T10:04:47;100472.21;;;3.59;87.23
76551;BME280;65393;53.160;18.170;2023-02-20T10:09:53;100481.45;;;3.65;87.23
76551;BME280;65393;53.160;18.170;2023-02-20T10:15:42;100464.31;;;3.74;87.21
76551;BME280;65393;53.160;18.170;2023-02-20T10:23:47;100442.55;;;3.85;87.30
76551;BME280;65393;53.160;18.170;2023-02-20T10:26:25;100429.98;;;3.90;87.13
76551;BME280;65393;53.160;18.170;2023-02-20T10:28:58;100409.73;;;3.95;87.03
76551;BME280;65393;53.160;18.170;2023-02-20T10:31:40;100426.34;;;3.99;87.15
76551;BME280;65393;53.160;18.170;2023-02-20T10:37:21;100393.81;;;4.12;86.91
76551;BME280;65393;53.160;18.170;2023-02-20T10:39:59;100397.38;;;4.19;86.63
76551;BME280;65393;53.160;18.170;2023-02-20T10:45:03;100386.64;;;4.30;86.62
76551;BME280;65393;53.160;18.170;2023-02-20T10:47:49;100379.36;;;4.35;86.50
76551;BME280;65393;53.160;18.170;2023-02-20T10:50:22;100381.70;;;4.40;86.49
76551;BME280;65393;53.160;18.170;2023-02-20T10:57:59;100348.75;;;4.56;86.47
76551;BME280;65393;53.160;18.170;2023-02-20T11:00:37;100342.82;;;4.61;86.42
76551;BME280;65393;53.160;18.170;2023-02-20T11:03:14;100346.65;;;4.64;86.49
76551;BME280;65393;53.160;18.170;2023-02-20T11:05:47;100344.41;;;4.70;86.20
76551;BME280;65393;53.160;18.170;2023-02-20T11:08:15;100343.10;;;4.74;86.14
76551;BME280;65393;53.160;18.170;2023-02-20T11:10:47;100336.83;;;4.80;85.80
76551;BME280;65393;53.160;18.170;2023-02-20T11:13:18;100333.91;;;4.85;85.76
76551;BME280;65393;53.160;18.170;2023-02-20T11:15:46;100326.40;;;4.90;85.80
76551;BME280;65393;53.160;18.170;2023-02-20T11:18:22;100323.16;;;4.93;85.77
76551;BME280;65393;53.160;18.170;2023-02-20T11:20:53;100313.73;;;4.99;85.50
76551;BME280;65393;53.160;18.170;2023-02-20T11:29:15;100301.41;;;5.08;85.40
76551;BME280;65393;53.160;18.170;2023-02-20T11:31:50;100286.32;;;5.13;85.60
76551;BME280;65393;53.160;18.170;2023-02-20T11:34:23;100280.06;;;5.18;85.53
76551;BME280;65393;53.160;18.170;2023-02-20T11:36:55;100266.61;;;5.21;85.38
76551;BME280;65393;53.160;18.170;2023-02-20T11:39:36;100267.92;;;5.26;85.19
76551;BME280;65393;53.160;18.170;2023-02-20T11:42:21;100265.16;;;5.30;85.27
76551;BME280;65393;53.160;18.170;2023-02-20T11:45:12;100250.14;;;5.33;84.98
76551;BME280;65393;53.160;18.170;2023-02-20T11:47:41;100249.69;;;5.38;85.01
76551;BME280;65393;53.160;18.170;2023-02-20T11:50:14;100243.05;;;5.42;85.14
76551;BME280;65393;53.160;18.170;2023-02-20T11:53:30;100242.83;;;5.45;84.98
76551;BME280;65393;53.160;18.170;2023-02-20T11:56:15;100223.35;;;5.49;85.00
76551;BME280;65393;53.160;18.170;2023-02-20T11:58:46;100216.04;;;5.52;84.77
76551;BME280;65393;53.160;18.170;2023-02-20T12:01:34;100211.40;;;5.55;84.83
76551;BME280;65393;53.160;18.170;2023-02-20T12:04:17;100214.11;;;5.59;84.84
76551;BME280;65393;53.160;18.170;2023-02-20T12:06:47;100215.56;;;5.64;84.70
76551;BME280;65393;53.160;18.170;2023-02-20T12:09:24;100208.09;;;5.68;84.49
76551;BME280;65393;53.160;18.170;2023-02-20T12:11:55;100206.65;;;5.75;84.41
76551;BME280;65393;53.160;18.170;2023-02-20T12:14:23;100208.25;;;5.80;84.35
76551;BME280;65393;53.160;18.170;2023-02-20T12:31:11;100212.02;;;6.11;84.09
76551;BME280;65393;53.160;18.170;2023-02-20T12:34:00;100210.52;;;6.15;83.94
76551;BME280;65393;53.160;18.170;2023-02-20T12:39:33;100212.98;;;6.21;83.94
76551;BME280;65393;53.160;18.170;2023-02-20T12:48:30;100196.80;;;6.26;84.32
76551;BME280;65393;53.160;18.170;2023-02-20T12:51:09;100190.61;;;6.27;84.21
76551;BME280;65393;53.160;18.170;2023-02-20T13:01:54;100185.85;;;6.27;84.86
76551;BME280;65393;53.160;18.170;2023-02-20T13:04:42;100193.38;;;6.29;84.93
76551;BME280;65393;53.160;18.170;2023-02-20T13:07:25;100182.63;;;6.29;85.18
76551;BME280;65393;53.160;18.170;2023-02-20T13:10:04;100172.47;;;6.27;85.02
76551;BME280;65393;53.160;18.170;2023-02-20T13:12:35;100166.17;;;6.25;85.22
76551;BME280;65393;53.160;18.170;2023-02-20T13:15:24;100169.52;;;6.25;85.19
76551;BME280;65393;53.160;18.170;2023-02-20T13:20:54;100162.45;;;6.26;85.46
76551;BME280;65393;53.160;18.170;2023-02-20T13:25:50;100157.02;;;6.31;85.45
76551;BME280;65393;53.160;18.170;2023-02-20T13:28:39;100145.69;;;6.32;85.35
76551;BME280;65393;53.160;18.170;2023-02-20T13:31:14;100133.70;;;6.32;85.29
76551;BME280;65393;53.160;18.170;2023-02-20T13:33:43;100128.90;;;6.34;85.40
76551;BME280;65393;53.160;18.170;2023-02-20T13:46:56;100103.52;;;6.40;85.22
76551;BME280;65393;53.160;18.170;2023-02-20T13:49:56;100092.70;;;6.42;85.07
76551;BME280;65393;53.160;18.170;2023-02-20T13:57:52;100075.62;;;6.47;84.72
76551;BME280;65393;53.160;18.170;2023-02-20T14:00:50;100069.77;;;6.48;84.67
76551;BME280;65393;53.160;18.170;2023-02-20T14:03:29;100071.55;;;6.53;84.73
76551;BME280;65393;53.160;18.170;2023-02-20T14:08:28;100060.10;;;6.58;84.61
76551;BME280;65393;53.160;18.170;2023-02-20T14:11:06;100042.50;;;6.62;84.31
76551;BME280;65393;53.160;18.170;2023-02-20T14:13:34;100041.92;;;6.64;84.13
76551;BME280;65393;53.160;18.170;2023-02-20T14:16:02;100047.31;;;6.66;84.18
76551;BME280;65393;53.160;18.170;2023-02-20T14:18:31;100054.13;;;6.69;84.30
76551;BME280;65393;53.160;18.170;2023-02-20T14:21:19;100057.88;;;6.73;83.89
76551;BME280;65393;53.160;18.170;2023-02-20T14:23:49;100054.59;;;6.76;84.02
76551;BME280;65393;53.160;18.170;2023-02-20T14:26:26;100049.11;;;6.81;83.70
76551;BME280;65393;53.160;18.170;2023-02-20T14:28:57;100040.52;;;6.85;83.53
76551;BME280;65393;53.160;18.170;2023-02-20T14:31:37;100034.10;;;6.87;83.45
76551;BME280;65393;53.160;18.170;2023-02-20T14:34:07;100032.61;;;6.90;83.28
76551;BME280;65393;53.160;18.170;2023-02-20T14:42:15;100034.55;;;6.94;83.72
76551;BME280;65393;53.160;18.170;2023-02-20T14:44:47;100046.99;;;6.97;84.00
76551;BME280;65393;53.160;18.170;2023-02-20T14:47:17;100042.45;;;6.95;83.93
76551;BME280;65393;53.160;18.170;2023-02-20T14:49:44;100040.84;;;6.96;84.23
76551;BME280;65393;53.160;18.170;2023-02-20T14:52:23;100047.05;;;7.00;84.15
76551;BME280;65393;53.160;18.170;2023-02-20T14:55:01;100044.94;;;7.05;84.00
76551;BME280;65393;53.160;18.170;2023-02-20T14:57:30;100040.64;;;7.07;84.15
76551;BME280;65393;53.160;18.170;2023-02-20T15:02:45;100041.77;;;7.11;83.96
76551;BME280;65393;53.160;18.170;2023-02-20T15:05:23;100033.89;;;7.19;83.89
76551;BME280;65393;53.160;18.170;2023-02-20T15:07:59;100038.67;;;7.23;83.82
76551;BME280;65393;53.160;18.170;2023-02-20T15:10:38;100051.94;;;7.27;83.83
76551;BME280;65393;53.160;18.170;2023-02-20T15:13:10;100045.30;;;7.35;83.74
76551;BME280;65393;53.160;18.170;2023-02-20T15:15:40;100049.49;;;7.36;83.55
76551;BME280;65393;53.160;18.170;2023-02-20T15:18:14;100057.05;;;7.37;83.50
76551;BME280;65393;53.160;18.170;2023-02-20T15:20:45;100040.21;;;7.39;83.42
76551;BME280;65393;53.160;18.170;2023-02-20T15:25:42;100044.55;;;7.52;82.99
76551;BME280;65393;53.160;18.170;2023-02-20T15:28:27;100044.10;;;7.54;83.22
76551;BME280;65393;53.160;18.170;2023-02-20T15:33:42;100040.41;;;7.53;83.69
76551;BME280;65393;53.160;18.170;2023-02-20T15:36:13;100038.56;;;7.51;83.93